Rumo Da Sr.a Da Guia — CUBY7 — position and weather

sailwx.info

Track history (hours):
 
Tides and Currents Weather Stations Pressure Air Temp Water Temp Dewpoint Dewpoint Depression Visibility Wind Speed Wind Dir Waves Ship Positions

Rumo Da Sr.a Da Guia

Last reported at 2018-Jun-23 09:37 UTC. Time now 2018-Jun-24 07:28 UTC.
Position N 41°11' W 008°42'.

Length 23 m.

Type: Fishing. MMSI: 263500201.

Date/timePositionNaut miles runAvg speedWind from/ knotsBaromVisibWave heightAir tempDewpointWater temp
2018-Jun-23 09:37N 41°11' W 008°42'0 0.0
2018-Jun-23 09:30N 41°11' W 008°42'0 0.0
2018-Jun-23 09:00N 41°11' W 008°42'0 0.0
2018-Jun-23 08:30N 41°11' W 008°42'0 0.0
2018-Jun-23 08:00N 41°11' W 008°42'0 0.0
2018-Jun-23 07:30N 41°11' W 008°42'1 1.6
2018-Jun-23 07:00N 41°10' W 008°43'2 0.1
2018-Jun-21 22:02N 41°08' W 008°43'011.0
2018-Jun-21 22:01N 41°08' W 008°43'3 0.2
2018-Jun-21 08:07N 41°11' W 008°42'0 0.1
2018-Jun-21 08:00N 41°11' W 008°42'0 0.0
2018-Jun-21 07:30N 41°11' W 008°42'0 0.0
2018-Jun-21 07:00N 41°11' W 008°42'0 0.0
2018-Jun-21 06:31N 41°11' W 008°42'0 0.0
2018-Jun-21 06:01N 41°11' W 008°42'2 0.2
2018-Jun-20 22:04N 41°09' W 008°43'110.9
2018-Jun-20 22:00N 41°10' W 008°43'1 0.1
2018-Jun-20 09:07N 41°11' W 008°42'0 0.0
2018-Jun-20 09:00N 41°11' W 008°42'0 0.0
2018-Jun-20 08:31N 41°11' W 008°42'0 0.0
2018-Jun-20 08:01N 41°11' W 008°42'0 0.0
2018-Jun-20 07:31N 41°11' W 008°42'0 0.0
2018-Jun-20 07:01N 41°11' W 008°42'0 0.0
2018-Jun-20 06:31N 41°11' W 008°42'0 0.0
2018-Jun-20 06:01N 41°11' W 008°42'0 0.0
2018-Jun-20 05:30N 41°11' W 008°42'3 0.5
2018-Jun-19 22:22N 41°09' W 008°45'3 9.0
2018-Jun-19 22:00N 41°11' W 008°42'0 0.0
2018-Jun-19 11:02N 41°11' W 008°42'0 0.0
2018-Jun-19 11:00N 41°11' W 008°42'0 0.0
2018-Jun-19 10:30N 41°11' W 008°42'0 0.0
2018-Jun-19 10:00N 41°11' W 008°42'0 0.0
2018-Jun-19 09:30N 41°11' W 008°42'0 0.0
2018-Jun-19 09:00N 41°11' W 008°42'0 0.3
2018-Jun-19 08:30N 41°11' W 008°42'0 0.1
2018-Jun-19 08:01N 41°11' W 008°42'0 0.3
2018-Jun-19 07:30N 41°11' W 008°42'0 0.0
2018-Jun-19 07:00N 41°11' W 008°42'0 0.1
2018-Jun-19 06:30N 41°11' W 008°42'2 0.3
2018-Jun-18 22:19N 41°09' W 008°43'2 6.7
2018-Jun-18 22:00N 41°11' W 008°42'0 0.0
2018-Jun-18 21:30N 41°11' W 008°42'0 0.0
2018-Jun-18 21:00N 41°11' W 008°42'0 0.0
2018-Jun-18 09:27N 41°11' W 008°42'0 0.0
2018-Jun-18 09:00N 41°11' W 008°42'0 0.0
2018-Jun-18 08:30N 41°11' W 008°42'0 0.0
2018-Jun-18 07:59N 41°11' W 008°42'0 0.0
2018-Jun-18 07:30N 41°11' W 008°42'2 0.4
2018-Jun-18 00:50N 41°10' W 008°45'2 7.2
2018-Jun-18 00:30N 41°11' W 008°42'0 0.0
2018-Jun-18 00:01N 41°11' W 008°42'0 0.0
2018-Jun-17 23:31N 41°11' W 008°42'0 0.0
2018-Jun-17 23:00N 41°11' W 008°42'0 0.0
2018-Jun-16 10:10N 41°11' W 008°42'0 0.0
2018-Jun-16 10:00N 41°11' W 008°42'0 0.0
2018-Jun-16 09:30N 41°11' W 008°42'0 0.0
2018-Jun-16 09:00N 41°11' W 008°42'0 0.0
2018-Jun-15 09:33N 41°11' W 008°42'0 0.0
2018-Jun-15 09:30N 41°11' W 008°42'0 0.1
2018-Jun-15 09:00N 41°11' W 008°42'0 0.0
2018-Jun-15 08:30N 41°11' W 008°42'2 0.3
2018-Jun-15 00:36N 41°09' W 008°43'1 9.5
2018-Jun-15 00:30N 41°10' W 008°43'1 2.4
2018-Jun-15 00:00N 41°11' W 008°42'0 0.0
2018-Jun-14 23:30N 41°11' W 008°42'0 0.0
2018-Jun-14 23:00N 41°11' W 008°42'0 0.0
2018-Jun-14 22:30N 41°11' W 008°42'0 0.0
2018-Jun-14 22:00N 41°11' W 008°42'0 0.0
2018-Jun-14 10:41N 41°11' W 008°42'0 0.0
2018-Jun-14 10:30N 41°11' W 008°42'0 0.0
2018-Jun-14 09:59N 41°11' W 008°42'0 0.0
2018-Jun-14 09:30N 41°11' W 008°42'0 0.0
2018-Jun-14 09:00N 41°11' W 008°42'2 3.4
2018-Jun-14 08:30N 41°09' W 008°43'0 0.1
2018-Jun-14 00:42N 41°09' W 008°43'210.0
2018-Jun-14 00:30N 41°11' W 008°42'0 0.6
2018-Jun-14 00:00N 41°11' W 008°42'0 0.0
2018-Jun-13 23:30N 41°11' W 008°42'0 0.0
2018-Jun-13 23:00N 41°11' W 008°42'0 0.0
2018-Jun-13 22:31N 41°11' W 008°42'0 0.0
2018-Jun-13 22:01N 41°11' W 008°42'  
Track history (hours):
 
Tides and Currents Weather Stations Pressure Air Temp Water Temp Dewpoint Dewpoint Depression Visibility Wind Speed Wind Dir Waves Ship Positions

Rumo Da Sr.a Da Guia

Last reported at 2018-Jun-23 09:37 UTC. Time now 2018-Jun-24 07:28 UTC.
Position N 41°11' W 008°42'.

Length 23 m.

Type: Fishing. MMSI: 263500201.

Date/timePositionNaut miles runAvg speedWind from/ knotsBaromVisibWave heightAir tempDewpointWater temp
2018-Jun-23 09:37N 41°11' W 008°42'0 0.0
2018-Jun-23 09:30N 41°11' W 008°42'0 0.0
2018-Jun-23 09:00N 41°11' W 008°42'0 0.0
2018-Jun-23 08:30N 41°11' W 008°42'0 0.0
2018-Jun-23 08:00N 41°11' W 008°42'0 0.0
2018-Jun-23 07:30N 41°11' W 008°42'1 1.6
2018-Jun-23 07:00N 41°10' W 008°43'2 0.1
2018-Jun-21 22:02N 41°08' W 008°43'011.0
2018-Jun-21 22:01N 41°08' W 008°43'3 0.2
2018-Jun-21 08:07N 41°11' W 008°42'0 0.1
2018-Jun-21 08:00N 41°11' W 008°42'0 0.0
2018-Jun-21 07:30N 41°11' W 008°42'0 0.0
2018-Jun-21 07:00N 41°11' W 008°42'0 0.0
2018-Jun-21 06:31N 41°11' W 008°42'0 0.0
2018-Jun-21 06:01N 41°11' W 008°42'2 0.2
2018-Jun-20 22:04N 41°09' W 008°43'110.9
2018-Jun-20 22:00N 41°10' W 008°43'1 0.1
2018-Jun-20 09:07N 41°11' W 008°42'0 0.0
2018-Jun-20 09:00N 41°11' W 008°42'0 0.0
2018-Jun-20 08:31N 41°11' W 008°42'0 0.0
2018-Jun-20 08:01N 41°11' W 008°42'0 0.0
2018-Jun-20 07:31N 41°11' W 008°42'0 0.0
2018-Jun-20 07:01N 41°11' W 008°42'0 0.0
2018-Jun-20 06:31N 41°11' W 008°42'0 0.0
2018-Jun-20 06:01N 41°11' W 008°42'0 0.0
2018-Jun-20 05:30N 41°11' W 008°42'3 0.5
2018-Jun-19 22:22N 41°09' W 008°45'3 9.0
2018-Jun-19 22:00N 41°11' W 008°42'0 0.0
2018-Jun-19 11:02N 41°11' W 008°42'0 0.0
2018-Jun-19 11:00N 41°11' W 008°42'0 0.0
2018-Jun-19 10:30N 41°11' W 008°42'0 0.0
2018-Jun-19 10:00N 41°11' W 008°42'0 0.0
2018-Jun-19 09:30N 41°11' W 008°42'0 0.0
2018-Jun-19 09:00N 41°11' W 008°42'0 0.3
2018-Jun-19 08:30N 41°11' W 008°42'0 0.1
2018-Jun-19 08:01N 41°11' W 008°42'0 0.3
2018-Jun-19 07:30N 41°11' W 008°42'0 0.0
2018-Jun-19 07:00N 41°11' W 008°42'0 0.1
2018-Jun-19 06:30N 41°11' W 008°42'2 0.3
2018-Jun-18 22:19N 41°09' W 008°43'2 6.7
2018-Jun-18 22:00N 41°11' W 008°42'0 0.0
2018-Jun-18 21:30N 41°11' W 008°42'0 0.0
2018-Jun-18 21:00N 41°11' W 008°42'0 0.0
2018-Jun-18 09:27N 41°11' W 008°42'0 0.0
2018-Jun-18 09:00N 41°11' W 008°42'0 0.0
2018-Jun-18 08:30N 41°11' W 008°42'0 0.0
2018-Jun-18 07:59N 41°11' W 008°42'0 0.0
2018-Jun-18 07:30N 41°11' W 008°42'2 0.4
2018-Jun-18 00:50N 41°10' W 008°45'2 7.2
2018-Jun-18 00:30N 41°11' W 008°42'0 0.0
2018-Jun-18 00:01N 41°11' W 008°42'0 0.0
2018-Jun-17 23:31N 41°11' W 008°42'0 0.0
2018-Jun-17 23:00N 41°11' W 008°42'0 0.0
2018-Jun-16 10:10N 41°11' W 008°42'0 0.0
2018-Jun-16 10:00N 41°11' W 008°42'0 0.0
2018-Jun-16 09:30N 41°11' W 008°42'0 0.0
2018-Jun-16 09:00N 41°11' W 008°42'0 0.0
2018-Jun-15 09:33N 41°11' W 008°42'0 0.0
2018-Jun-15 09:30N 41°11' W 008°42'0 0.1
2018-Jun-15 09:00N 41°11' W 008°42'0 0.0
2018-Jun-15 08:30N 41°11' W 008°42'2 0.3
2018-Jun-15 00:36N 41°09' W 008°43'1 9.5
2018-Jun-15 00:30N 41°10' W 008°43'1 2.4
2018-Jun-15 00:00N 41°11' W 008°42'0 0.0
2018-Jun-14 23:30N 41°11' W 008°42'0 0.0
2018-Jun-14 23:00N 41°11' W 008°42'0 0.0
2018-Jun-14 22:30N 41°11' W 008°42'0 0.0
2018-Jun-14 22:00N 41°11' W 008°42'0 0.0
2018-Jun-14 10:41N 41°11' W 008°42'0 0.0
2018-Jun-14 10:30N 41°11' W 008°42'0 0.0
2018-Jun-14 09:59N 41°11' W 008°42'0 0.0
2018-Jun-14 09:30N 41°11' W 008°42'0 0.0
2018-Jun-14 09:00N 41°11' W 008°42'2 3.4
2018-Jun-14 08:30N 41°09' W 008°43'0 0.1
2018-Jun-14 00:42N 41°09' W 008°43'210.0
2018-Jun-14 00:30N 41°11' W 008°42'0 0.6
2018-Jun-14 00:00N 41°11' W 008°42'0 0.0
2018-Jun-13 23:30N 41°11' W 008°42'0 0.0
2018-Jun-13 23:00N 41°11' W 008°42'0 0.0
2018-Jun-13 22:31N 41°11' W 008°42'0 0.0
2018-Jun-13 22:01N 41°11' W 008°42'  

Dump ship's entire track history